Time;durP1;ratioP1;P1;durP2;ratioP2;P2;SDS_P1;SDS_P2;PMS_P1;PMS_P2;Temp;Humidity;BMP_temperature;BMP_pressure;BME280_temperature;BME280_humidity;BME280_pressure;Samples;Min_cycle;Max_cycle;Signal;HPM_P1;HPM_P2
2024/01/26 00:01:02;;;;;;;12.60;8.20;;;;;;;1.39;100.00;99494.17;109290;1253;64653;-60
2024/01/26 00:03:30;;;;;;;12.20;8.90;;;;;;;1.39;100.00;99494.23;109211;1253;72753;-59
2024/01/26 00:05:59;;;;;;;13.10;9.20;;;;;;;1.39;100.00;99494.23;109243;1252;59425;-59
2024/01/26 00:08:27;;;;;;;15.50;9.70;;;;;;;1.40;100.00;99495.80;109230;1253;58805;-60
2024/01/26 00:10:55;;;;;;;13.20;8.70;;;;;;;1.39;100.00;99495.63;109226;1253;73949;-59
2024/01/26 00:13:23;;;;;;;14.80;9.60;;;;;;;1.39;100.00;99495.61;109311;1253;67026;-60
2024/01/26 00:15:51;;;;;;;14.00;9.30;;;;;;;1.41;100.00;99496.94;109054;1253;72391;-59
2024/01/26 00:18:19;;;;;;;14.50;9.00;;;;;;;1.44;100.00;99496.27;109222;1253;59523;-61
2024/01/26 00:20:46;;;;;;;13.90;8.30;;;;;;;1.47;100.00;99497.27;109193;1253;60079;-61
2024/01/26 00:23:14;;;;;;;15.60;9.90;;;;;;;1.46;100.00;99495.80;109274;1253;73891;-59
2024/01/26 00:25:42;;;;;;;14.00;9.50;;;;;;;1.46;100.00;99495.77;109259;1252;67212;-60
2024/01/26 00:28:09;;;;;;;13.10;8.60;;;;;;;1.48;100.00;99499.60;109214;1253;70128;-59
2024/01/26 00:30:37;;;;;;;13.80;9.00;;;;;;;1.48;100.00;99497.98;109232;1253;58110;-65
2024/01/26 00:33:05;;;;;;;13.80;9.10;;;;;;;1.51;100.00;99497.77;109291;1253;58866;-60
2024/01/26 00:35:32;;;;;;;13.90;9.40;;;;;;;1.52;100.00;99496.42;109260;1253;72837;-58
2024/01/26 00:38:00;;;;;;;15.30;9.30;;;;;;;1.53;100.00;99497.77;109299;1253;67042;-59
2024/01/26 00:40:28;;;;;;;13.10;9.10;;;;;;;1.52;100.00;99496.08;109221;1253;72912;-60
2024/01/26 00:42:56;;;;;;;16.30;9.70;;;;;;;1.49;100.00;99493.01;109216;1253;61127;-58
2024/01/26 00:45:23;;;;;;;13.90;9.20;;;;;;;1.48;100.00;99490.01;109241;1253;60088;-59
2024/01/26 00:47:51;;;;;;;12.40;8.10;;;;;;;1.47;100.00;99494.84;109258;1253;73913;-59
2024/01/26 00:50:19;;;;;;;14.00;9.10;;;;;;;1.48;100.00;99490.02;109260;1253;67562;-58
2024/01/26 00:52:47;;;;;;;13.60;8.90;;;;;;;1.46;100.00;99487.23;109198;1253;72717;-60
2024/01/26 00:55:15;;;;;;;13.50;9.00;;;;;;;1.45;100.00;99488.86;109218;1254;58576;-58
2024/01/26 00:57:42;;;;;;;14.80;9.20;;;;;;;1.45;100.00;99487.33;109285;1253;58621;-59
2024/01/26 01:00:10;;;;;;;13.50;8.40;;;;;;;1.47;100.00;99486.44;109304;1252;73937;-58
2024/01/26 01:02:38;;;;;;;12.50;8.20;;;;;;;1.49;100.00;99487.34;109237;1253;67197;-64
2024/01/26 01:05:06;;;;;;;12.40;7.90;;;;;;;1.49;100.00;99490.09;109303;1253;72819;-58
2024/01/26 01:07:34;;;;;;;12.70;8.00;;;;;;;1.48;100.00;99488.07;109108;1253;59680;-59
2024/01/26 01:10:02;;;;;;;11.20;7.50;;;;;;;1.50;100.00;99485.45;109249;1253;58808;-59
2024/01/26 01:12:30;;;;;;;12.00;8.00;;;;;;;1.54;100.00;99487.70;109333;1253;73642;-58
2024/01/26 01:14:58;;;;;;;12.70;8.00;;;;;;;1.57;100.00;99488.42;109198;1253;66770;-59
2024/01/26 01:17:26;;;;;;;11.30;7.50;;;;;;;1.59;100.00;99492.17;109236;1253;71829;-58
2024/01/26 01:19:54;;;;;;;12.90;7.80;;;;;;;1.60;100.00;99491.40;109235;1253;58427;-58
2024/01/26 01:22:21;;;;;;;12.70;8.30;;;;;;;1.62;100.00;99492.38;109239;1253;60096;-58
2024/01/26 01:24:49;;;;;;;12.20;8.10;;;;;;;1.63;100.00;99493.33;109207;1253;73906;-59
2024/01/26 01:27:17;;;;;;;11.00;7.20;;;;;;;1.63;100.00;99494.14;109290;1253;66862;-59
2024/01/26 01:29:45;;;;;;;13.80;8.20;;;;;;;1.65;100.00;99497.94;109222;1253;71458;-59
2024/01/26 01:32:12;;;;;;;12.10;7.70;;;;;;;1.67;100.00;99497.55;109247;1253;58074;-59
2024/01/26 01:34:40;;;;;;;12.40;7.70;;;;;;;1.69;100.00;99500.51;109264;1253;58125;-59
2024/01/26 01:37:08;;;;;;;10.80;7.30;;;;;;;1.69;100.00;99503.86;109322;1253;73993;-58
2024/01/26 01:39:36;;;;;;;12.30;8.00;;;;;;;1.68;100.00;99505.39;109266;1253;65871;-59
2024/01/26 01:42:04;;;;;;;10.30;7.50;;;;;;;1.67;100.00;99509.34;109257;1253;72712;-59
2024/01/26 01:44:32;;;;;;;13.80;7.80;;;;;;;1.67;100.00;99512.86;109206;1253;60949;-60
2024/01/26 01:47:00;;;;;;;15.40;8.00;;;;;;;1.66;100.00;99514.95;109175;1253;58820;-59
2024/01/26 01:49:27;;;;;;;11.20;7.60;;;;;;;1.65;100.00;99514.86;109253;1253;72636;-59
2024/01/26 01:51:55;;;;;;;10.80;6.90;;;;;;;1.65;100.00;99516.46;109261;1253;67084;-59
2024/01/26 01:54:23;;;;;;;11.20;7.10;;;;;;;1.64;100.00;99519.13;109118;1253;72746;-58
2024/01/26 01:56:51;;;;;;;11.50;7.80;;;;;;;1.65;100.00;99518.71;109035;1253;60861;-64
2024/01/26 01:59:20;;;;;;;10.00;6.60;;;;;;;1.65;100.00;99520.89;109237;1253;60062;-60
2024/01/26 02:01:49;;;;;;;11.50;7.80;;;;;;;1.65;100.00;99520.22;109096;1253;72751;-58
2024/01/26 02:04:16;;;;;;;10.10;6.80;;;;;;;1.66;100.00;99521.98;109118;1253;65278;-58
2024/01/26 02:06:57;;;;;;;12.90;7.60;;;;;;;1.68;100.00;99525.08;109250;1253;71131;-64
2024/01/26 02:09:25;;;;;;;11.20;7.00;;;;;;;1.69;100.00;99524.31;109221;1252;60947;-59
2024/01/26 02:11:53;;;;;;;10.50;6.80;;;;;;;1.69;100.00;99526.83;109225;1253;60134;-59
2024/01/26 02:14:21;;;;;;;9.20;6.90;;;;;;;1.69;100.00;99531.60;109230;1253;72701;-58
2024/01/26 02:16:59;;;;;;;9.70;6.60;;;;;;;1.70;100.00;99526.77;109101;1255;66227;-59
2024/01/26 02:19:27;;;;;;;11.40;6.80;;;;;;;1.72;100.00;99528.17;109034;1253;72545;-59
2024/01/26 02:21:55;;;;;;;10.70;6.90;;;;;;;1.72;100.00;99533.44;109206;1253;59470;-60
2024/01/26 02:24:22;;;;;;;9.70;5.80;;;;;;;1.73;100.00;99529.45;109185;1253;60085;-60
2024/01/26 02:26:50;;;;;;;11.00;6.40;;;;;;;1.72;100.00;99530.19;109189;1253;73590;-60
2024/01/26 02:29:18;;;;;;;7.70;5.10;;;;;;;1.70;100.00;99530.36;109266;1253;66113;-59
2024/01/26 02:31:46;;;;;;;10.20;5.50;;;;;;;1.72;100.00;99528.52;109220;1253;72435;-59
2024/01/26 02:34:13;;;;;;;9.60;5.80;;;;;;;1.71;100.00;99530.13;109241;1252;59375;-60
2024/01/26 02:36:41;;;;;;;8.10;5.00;;;;;;;1.70;100.00;99534.11;109218;1253;58172;-60
2024/01/26 02:39:10;;;;;;;9.70;5.90;;;;;;;1.70;100.00;99535.98;109244;1253;72561;-60
2024/01/26 02:41:39;;;;;;;8.70;6.20;;;;;;;1.70;100.00;99532.05;109324;1255;65779;-60
2024/01/26 02:44:07;;;;;;;7.70;5.30;;;;;;;1.70;100.00;99530.50;109157;1253;72762;-60
2024/01/26 02:46:34;;;;;;;9.80;6.10;;;;;;;1.71;100.00;99534.40;109189;1253;59260;-62
2024/01/26 02:49:03;;;;;;;7.60;4.90;;;;;;;1.70;100.00;99535.00;109243;1253;58848;-60
2024/01/26 02:51:30;;;;;;;9.10;5.60;;;;;;;1.69;100.00;99537.60;109259;1253;73927;-60
2024/01/26 02:54:00;;;;;;;8.80;6.20;;;;;;;1.69;100.00;99539.50;109336;1253;65808;-60
2024/01/26 02:56:27;;;;;;;9.80;6.60;;;;;;;1.68;100.00;99540.17;109184;1253;72750;-59
2024/01/26 02:58:55;;;;;;;9.40;5.80;;;;;;;1.66;100.00;99542.35;109181;1253;59596;-61
2024/01/26 03:01:22;;;;;;;9.50;6.70;;;;;;;1.65;100.00;99539.04;109203;1253;59992;-60
2024/01/26 03:03:50;;;;;;;10.40;7.10;;;;;;;1.65;100.00;99538.34;109252;1252;73843;-59
2024/01/26 03:06:18;;;;;;;9.50;5.80;;;;;;;1.66;100.00;99543.09;109243;1253;66242;-60
2024/01/26 03:08:46;;;;;;;9.80;6.20;;;;;;;1.65;100.00;99546.23;109230;1253;72566;-60
2024/01/26 03:11:14;;;;;;;8.90;6.70;;;;;;;1.64;100.00;99539.96;109172;1253;59823;-59
2024/01/26 03:13:42;;;;;;;11.00;6.50;;;;;;;1.65;100.00;99537.71;109247;1253;60264;-59
2024/01/26 03:16:10;;;;;;;10.30;6.90;;;;;;;1.65;100.00;99536.31;109207;1252;73911;-60
2024/01/26 03:18:37;;;;;;;11.50;7.80;;;;;;;1.64;100.00;99540.17;109190;1253;67543;-59
2024/01/26 03:21:06;;;;;;;11.30;6.70;;;;;;;1.64;100.00;99544.27;109176;1253;70511;-60
2024/01/26 03:23:33;;;;;;;9.90;6.90;;;;;;;1.66;100.00;99546.52;109194;1253;59671;-61
2024/01/26 03:26:01;;;;;;;11.60;7.30;;;;;;;1.66;100.00;99549.17;109257;1253;58825;-60
2024/01/26 03:28:29;;;;;;;10.00;6.70;;;;;;;1.69;100.00;99552.57;109169;1253;74372;-59
2024/01/26 03:30:57;;;;;;;10.60;7.30;;;;;;;1.71;100.00;99551.90;109178;1253;66495;-65
2024/01/26 03:33:24;;;;;;;11.10;7.10;;;;;;;1.72;100.00;99554.54;109221;1253;72436;-60
2024/01/26 03:35:52;;;;;;;11.80;7.30;;;;;;;1.74;100.00;99553.14;109253;1253;59359;-59
2024/01/26 03:38:20;;;;;;;12.80;8.40;;;;;;;1.75;100.00;99556.14;109216;1253;58827;-59
2024/01/26 03:40:48;;;;;;;11.30;6.90;;;;;;;1.76;100.00;99557.40;109238;1253;73969;-60
2024/01/26 03:43:15;;;;;;;11.00;7.40;;;;;;;1.77;100.00;99557.83;109213;1253;65682;-60
2024/01/26 03:45:43;;;;;;;12.60;8.00;;;;;;;1.77;100.00;99561.39;109175;1253;71699;-60
2024/01/26 03:48:11;;;;;;;11.30;7.80;;;;;;;1.79;100.00;99560.55;109222;1253;58527;-59
2024/01/26 03:50:39;;;;;;;13.10;7.30;;;;;;;1.80;100.00;99565.39;109223;1253;58827;-61
2024/01/26 03:53:06;;;;;;;13.50;8.30;;;;;;;1.80;100.00;99573.13;109011;1253;72456;-60
2024/01/26 03:55:34;;;;;;;15.80;8.90;;;;;;;1.81;100.00;99572.71;109190;1258;66706;-59
2024/01/26 03:58:02;;;;;;;13.90;8.40;;;;;;;1.81;100.00;99576.92;109195;1256;72503;-60
2024/01/26 04:00:29;;;;;;;12.10;8.30;;;;;;;1.82;100.00;99576.16;109190;1253;58917;-60
2024/01/26 04:02:57;;;;;;;13.40;8.70;;;;;;;1.82;100.00;99579.27;109209;1253;58845;-60
2024/01/26 04:05:25;;;;;;;15.00;9.30;;;;;;;1.84;100.00;99580.98;109199;1253;73927;-60
2024/01/26 04:07:53;;;;;;;11.20;7.20;;;;;;;1.84;100.00;99583.90;109227;1253;66681;-60
2024/01/26 04:10:20;;;;;;;14.60;9.40;;;;;;;1.83;100.00;99588.64;109231;1253;72436;-60
2024/01/26 04:12:48;;;;;;;14.50;8.50;;;;;;;1.84;100.00;99590.25;109223;1253;60833;-59
2024/01/26 04:15:16;;;;;;;14.50;8.70;;;;;;;1.85;100.00;99590.99;109251;1253;59047;-63
2024/01/26 04:17:43;;;;;;;14.00;8.70;;;;;;;1.85;100.00;99593.71;109150;1253;72451;-60
2024/01/26 04:20:11;;;;;;;15.00;8.70;;;;;;;1.86;100.00;99594.69;109265;1253;67110;-60
2024/01/26 04:22:39;;;;;;;11.70;7.30;;;;;;;1.86;100.00;99594.82;109353;1253;72787;-61
2024/01/26 04:25:07;;;;;;;14.20;8.20;;;;;;;1.85;100.00;99593.02;109381;1252;59639;-59
2024/01/26 04:27:34;;;;;;;13.50;8.00;;;;;;;1.87;100.00;99597.66;109244;1253;60497;-64
2024/01/26 04:30:03;;;;;;;13.80;8.40;;;;;;;1.88;100.00;99596.38;109200;1253;73835;-60
2024/01/26 04:32:30;;;;;;;14.00;8.20;;;;;;;1.89;100.00;99602.92;109396;1253;67015;-60
2024/01/26 04:34:58;;;;;;;13.90;8.60;;;;;;;1.90;100.00;99603.55;109210;1253;72748;-60
2024/01/26 04:37:26;;;;;;;13.80;8.70;;;;;;;1.89;100.00;99601.59;109227;1253;58981;-60
2024/01/26 04:39:55;;;;;;;12.80;8.40;;;;;;;1.89;100.00;99606.36;109141;1253;58908;-62
2024/01/26 04:42:22;;;;;;;15.50;8.60;;;;;;;1.90;100.00;99605.27;109252;1252;73479;-60
2024/01/26 04:44:51;;;;;;;13.00;8.10;;;;;;;1.91;100.00;99609.30;109239;1258;65494;-60
2024/01/26 04:47:18;;;;;;;13.50;8.00;;;;;;;1.92;100.00;99610.90;109177;1253;72382;-60
2024/01/26 04:49:46;;;;;;;13.40;8.70;;;;;;;1.93;100.00;99612.78;109195;1253;59385;-59
2024/01/26 04:52:14;;;;;;;13.60;8.00;;;;;;;1.97;100.00;99617.30;109154;1253;60104;-60
2024/01/26 04:54:41;;;;;;;14.00;8.30;;;;;;;1.99;100.00;99616.41;109233;1253;75280;-60
2024/01/26 04:57:09;;;;;;;14.90;8.90;;;;;;;2.00;100.00;99616.98;109224;1253;66144;-61
2024/01/26 04:59:37;;;;;;;13.90;8.70;;;;;;;1.96;100.00;99616.35;109176;1253;71112;-61
2024/01/26 05:02:04;;;;;;;13.70;7.60;;;;;;;1.95;100.00;99621.39;109161;1253;60897;-61
2024/01/26 05:04:32;;;;;;;14.70;9.00;;;;;;;1.95;100.00;99622.10;109214;1253;59038;-60
2024/01/26 05:07:01;;;;;;;14.90;8.40;;;;;;;1.94;100.00;99622.38;109233;1253;73775;-61
2024/01/26 05:09:28;;;;;;;14.90;8.80;;;;;;;1.93;100.00;99623.10;109256;1253;66928;-61
2024/01/26 05:11:56;;;;;;;15.60;9.30;;;;;;;1.94;100.00;99623.89;109196;1253;72773;-65
2024/01/26 05:14:24;;;;;;;16.20;9.30;;;;;;;1.94;100.00;99628.98;109193;1256;60916;-60
2024/01/26 05:16:51;;;;;;;17.70;9.90;;;;;;;1.94;100.00;99633.65;109232;1253;58947;-60
2024/01/26 05:19:19;;;;;;;16.60;9.30;;;;;;;1.94;100.00;99639.49;109230;1252;74821;-59
2024/01/26 05:21:47;;;;;;;19.00;10.30;;;;;;;1.94;100.00;99639.86;109249;1253;66940;-60
2024/01/26 05:24:14;;;;;;;16.90;9.70;;;;;;;1.94;100.00;99640.63;109143;1253;72786;-62
2024/01/26 05:26:42;;;;;;;18.50;10.30;;;;;;;1.96;100.00;99646.45;109214;1253;59298;-60
2024/01/26 05:29:10;;;;;;;21.70;12.20;;;;;;;1.97;100.00;99646.95;109196;1253;60172;-61
2024/01/26 05:31:41;;;;;;;20.30;10.80;;;;;;;1.97;100.00;99649.79;109234;1253;73483;-60
2024/01/26 05:34:09;;;;;;;16.90;9.90;;;;;;;1.98;100.00;99652.34;109145;1253;66936;-65
2024/01/26 05:36:41;;;;;;;19.40;10.90;;;;;;;1.99;100.00;99652.54;109209;1254;71398;-60
2024/01/26 05:39:10;;;;;;;18.40;10.90;;;;;;;2.02;100.00;99652.31;109206;1253;59276;-60
2024/01/26 05:41:38;;;;;;;18.20;9.70;;;;;;;2.05;100.00;99657.16;109183;1253;60020;-61
2024/01/26 05:44:06;;;;;;;20.70;11.60;;;;;;;2.08;100.00;99658.58;109308;1253;73406;-60
2024/01/26 05:46:34;;;;;;;20.00;10.80;;;;;;;2.08;100.00;99661.83;109379;1253;67048;-60
2024/01/26 05:49:01;;;;;;;22.10;11.90;;;;;;;2.10;100.00;99666.39;109404;1253;72735;-59
2024/01/26 05:51:33;;;;;;;17.40;9.80;;;;;;;2.12;100.00;99667.29;109192;1253;59014;-60
2024/01/26 05:54:01;;;;;;;19.90;11.10;;;;;;;2.12;100.00;99668.67;109157;1253;59042;-61
2024/01/26 05:56:28;;;;;;;20.90;11.30;;;;;;;2.11;100.00;99668.06;109245;1253;74681;-61
2024/01/26 05:58:56;;;;;;;19.30;11.30;;;;;;;2.14;100.00;99670.73;109183;1253;65652;-60
2024/01/26 06:01:24;;;;;;;21.50;11.90;;;;;;;2.15;100.00;99670.40;109207;1253;72836;-61
2024/01/26 06:03:51;;;;;;;21.90;12.90;;;;;;;2.16;100.00;99667.05;109157;1253;59847;-65
2024/01/26 06:06:20;;;;;;;22.20;12.00;;;;;;;2.18;100.00;99670.27;109199;1253;59024;-61
2024/01/26 06:08:48;;;;;;;22.20;12.50;;;;;;;2.19;100.00;99673.45;109370;1253;74648;-61
2024/01/26 06:11:17;;;;;;;19.30;11.40;;;;;;;2.21;100.00;99674.39;109238;1258;67556;-60
2024/01/26 06:13:44;;;;;;;19.90;11.20;;;;;;;2.21;100.00;99677.77;109238;1253;71255;-62
2024/01/26 06:16:15;;;;;;;23.20;11.70;;;;;;;2.19;100.00;99678.09;109156;1253;60048;-62
2024/01/26 06:18:46;;;;;;;23.10;12.00;;;;;;;2.20;100.00;99679.41;109211;1253;60054;-62
2024/01/26 06:21:14;;;;;;;25.60;13.80;;;;;;;2.19;100.00;99677.05;109204;1253;74734;-62
2024/01/26 06:23:42;;;;;;;24.70;14.80;;;;;;;2.17;100.00;99681.48;109230;1253;65656;-61
2024/01/26 06:26:09;;;;;;;22.60;12.80;;;;;;;2.20;100.00;99687.81;109184;1253;72770;-62
2024/01/26 06:28:37;;;;;;;22.20;12.70;;;;;;;2.21;100.00;99685.65;109216;1254;59344;-61
2024/01/26 06:31:05;;;;;;;30.90;16.40;;;;;;;2.23;100.00;99686.36;109208;1253;60203;-62
2024/01/26 06:33:32;;;;;;;27.20;15.30;;;;;;;2.25;100.00;99689.39;109224;1253;73812;-62
2024/01/26 06:36:00;;;;;;;26.70;14.30;;;;;;;2.27;100.00;99692.10;109174;1253;65811;-66
2024/01/26 06:38:28;;;;;;;24.50;13.30;;;;;;;2.28;100.00;99698.68;109174;1253;71751;-62
2024/01/26 06:40:57;;;;;;;25.40;13.30;;;;;;;2.30;100.00;99701.61;109160;1253;59464;-62
2024/01/26 06:43:25;;;;;;;18.10;10.40;;;;;;;2.30;100.00;99698.83;109218;1253;60107;-62
2024/01/26 06:45:52;;;;;;;17.30;9.30;;;;;;;2.31;100.00;99698.93;109224;1253;74739;-61
2024/01/26 06:48:20;;;;;;;18.70;11.10;;;;;;;2.32;100.00;99701.13;109115;1253;66879;-64
2024/01/26 06:50:48;;;;;;;20.10;11.20;;;;;;;2.32;100.00;99704.02;109217;1253;71367;-61
2024/01/26 06:53:16;;;;;;;23.00;13.40;;;;;;;2.32;100.00;99711.23;109175;1253;59681;-62
2024/01/26 06:55:43;;;;;;;25.00;13.30;;;;;;;2.33;100.00;99711.65;109182;1252;59329;-61
2024/01/26 06:58:11;;;;;;;22.20;12.90;;;;;;;2.33;100.00;99713.67;109175;1253;76952;-60
2024/01/26 07:00:39;;;;;;;18.80;10.40;;;;;;;2.34;100.00;99713.39;109193;1253;65689;-62
2024/01/26 07:03:11;;;;;;;17.80;10.80;;;;;;;2.34;100.00;99710.63;109182;1254;72382;-62
2024/01/26 07:05:39;;;;;;;18.90;12.10;;;;;;;2.32;100.00;99715.44;109214;1253;59641;-61
2024/01/26 07:08:07;;;;;;;22.70;13.40;;;;;;;2.32;100.00;99715.17;109244;1253;60122;-65
2024/01/26 07:10:34;;;;;;;19.90;10.70;;;;;;;2.34;100.00;99718.38;109134;1253;74698;-62
2024/01/26 07:13:02;;;;;;;20.60;12.00;;;;;;;2.37;100.00;99718.96;109155;1253;66997;-62
2024/01/26 07:15:31;;;;;;;19.10;11.60;;;;;;;2.39;100.00;99719.95;109297;1253;71805;-63
2024/01/26 07:17:58;;;;;;;18.80;11.40;;;;;;;2.42;100.00;99719.12;109139;1253;59675;-62
2024/01/26 07:20:26;;;;;;;19.40;11.00;;;;;;;2.46;100.00;99716.93;109142;1252;58898;-62
2024/01/26 07:22:54;;;;;;;20.70;11.20;;;;;;;2.50;100.00;99719.11;109125;1253;75085;-62
2024/01/26 07:25:22;;;;;;;21.60;11.40;;;;;;;2.53;100.00;99716.95;109153;1253;67020;-63
2024/01/26 07:27:49;;;;;;;24.70;13.60;;;;;;;2.55;100.00;99718.59;109131;1253;72720;-62
2024/01/26 07:30:18;;;;;;;21.40;13.30;;;;;;;2.57;100.00;99722.20;109157;1254;58944;-62
2024/01/26 07:32:46;;;;;;;24.50;13.50;;;;;;;2.61;100.00;99724.27;109151;1253;59778;-62
2024/01/26 07:35:14;;;;;;;25.80;14.50;;;;;;;2.64;100.00;99726.55;109176;1253;73392;-63
2024/01/26 07:37:42;;;;;;;25.70;13.70;;;;;;;2.66;100.00;99726.11;109185;1254;65638;-63
2024/01/26 07:40:10;;;;;;;24.30;13.30;;;;;;;2.70;100.00;99726.83;109178;1253;72761;-62
2024/01/26 07:42:37;;;;;;;22.20;12.60;;;;;;;2.74;100.00;99729.26;109099;1253;59382;-62
2024/01/26 07:45:05;;;;;;;29.30;14.00;;;;;;;2.78;100.00;99730.30;109189;1253;58904;-62
2024/01/26 07:47:35;;;;;;;25.80;14.90;;;;;;;2.81;100.00;99730.70;109215;1253;75155;-62
2024/01/26 07:50:03;;;;;;;23.30;12.30;;;;;;;2.83;100.00;99732.80;109210;1252;65719;-65
2024/01/26 07:52:31;;;;;;;25.30;14.80;;;;;;;2.86;100.00;99732.19;109164;1254;73533;-62
2024/01/26 07:54:59;;;;;;;27.70;13.80;;;;;;;2.88;100.00;99734.34;109189;1253;59610;-63
2024/01/26 07:57:26;;;;;;;29.40;16.80;;;;;;;2.91;100.00;99738.41;109203;1253;59400;-62
2024/01/26 07:59:54;;;;;;;27.80;15.00;;;;;;;2.92;100.00;99740.11;109192;1253;73736;-66
2024/01/26 08:02:22;;;;;;;23.70;13.40;;;;;;;2.97;100.00;99741.41;109198;1253;67401;-62
2024/01/26 08:04:50;;;;;;;28.90;14.40;;;;;;;3.01;100.00;99745.36;109160;1253;72827;-62
2024/01/26 08:07:17;;;;;;;26.40;15.00;;;;;;;3.04;100.00;99746.10;109123;1253;61584;-62
2024/01/26 08:09:45;;;;;;;27.20;14.10;;;;;;;3.07;100.00;99743.88;109172;1253;59053;-62
2024/01/26 08:12:13;;;;;;;23.80;14.70;;;;;;;3.10;100.00;99751.31;109126;1254;74738;-67
2024/01/26 08:15:00;;;;;;;25.60;15.10;;;;;;;3.15;100.00;99751.81;109136;1254;66953;-63
2024/01/26 08:17:28;;;;;;;24.00;15.00;;;;;;;3.21;100.00;99750.27;109208;1254;72399;-63
2024/01/26 08:19:58;;;;;;;22.50;13.40;;;;;;;3.26;100.00;99752.73;109142;1253;61353;-62
2024/01/26 08:22:26;;;;;;;23.20;13.70;;;;;;;3.32;100.00;99754.56;109295;1253;58918;-62
2024/01/26 08:24:53;;;;;;;20.30;12.90;;;;;;;3.35;100.00;99755.75;109248;1252;74720;-62
2024/01/26 08:27:21;;;;;;;22.00;13.50;;;;;;;3.40;100.00;99755.95;109226;1253;67211;-62
2024/01/26 08:29:49;;;;;;;22.60;14.20;;;;;;;3.47;100.00;99755.84;109282;1254;72683;-62
2024/01/26 08:32:17;;;;;;;24.50;16.00;;;;;;;3.54;100.00;99756.15;109151;1254;60791;-63
2024/01/26 08:34:45;;;;;;;22.70;14.70;;;;;;;3.61;100.00;99759.61;109109;1253;59756;-62
2024/01/26 08:37:13;;;;;;;20.80;13.00;;;;;;;3.70;100.00;99759.80;109159;1254;77330;-62
2024/01/26 08:39:47;;;;;;;20.80;13.30;;;;;;;3.76;100.00;99757.77;109244;1253;67063;-62
2024/01/26 08:42:14;;;;;;;17.60;11.00;;;;;;;3.82;100.00;99759.56;109247;1254;72845;-63
2024/01/26 08:44:42;;;;;;;16.70;10.80;;;;;;;3.87;100.00;99757.90;109129;1252;60763;-63
2024/01/26 08:47:10;;;;;;;14.60;9.30;;;;;;;3.87;100.00;99758.23;109226;1254;62439;-63
2024/01/26 08:49:38;;;;;;;15.30;10.30;;;;;;;3.85;100.00;99756.93;109185;1253;76647;-63
2024/01/26 08:52:05;;;;;;;15.70;10.30;;;;;;;3.81;100.00;99760.17;109220;1252;67160;-62
2024/01/26 08:54:33;;;;;;;16.40;9.80;;;;;;;3.79;100.00;99758.33;109136;1254;71443;-62
2024/01/26 08:57:01;;;;;;;15.20;10.50;;;;;;;3.78;100.00;99760.52;109176;1255;60249;-63
2024/01/26 08:59:28;;;;;;;14.80;9.90;;;;;;;3.76;100.00;99758.85;109222;1252;61040;-63
2024/01/26 09:01:56;;;;;;;15.40;10.30;;;;;;;3.71;100.00;99759.45;109237;1253;74740;-63
2024/01/26 09:04:24;;;;;;;16.10;10.10;;;;;;;3.69;100.00;99755.10;109186;1253;68025;-66
2024/01/26 09:06:52;;;;;;;15.80;10.30;;;;;;;3.69;100.00;99753.81;109210;1253;74119;-63
2024/01/26 09:09:30;;;;;;;16.60;10.20;;;;;;;3.73;100.00;99755.33;109182;1252;60138;-63
2024/01/26 09:11:58;;;;;;;17.00;10.20;;;;;;;3.75;100.00;99753.94;109179;1253;60549;-63
2024/01/26 09:14:26;;;;;;;16.90;10.90;;;;;;;3.75;100.00;99750.88;109190;1253;74662;-64
2024/01/26 09:16:53;;;;;;;15.30;10.20;;;;;;;3.77;100.00;99749.31;109198;1254;66944;-63
2024/01/26 09:19:22;;;;;;;15.10;10.40;;;;;;;3.77;100.00;99747.20;109258;1257;72756;-63
2024/01/26 09:21:51;;;;;;;13.70;8.90;;;;;;;3.79;100.00;99748.27;109200;1253;62954;-63
2024/01/26 09:24:19;;;;;;;13.40;8.40;;;;;;;3.80;100.00;99747.25;109146;1253;62288;-67
2024/01/26 09:26:47;;;;;;;13.20;8.90;;;;;;;3.80;100.00;99748.85;109188;1254;74690;-63
2024/01/26 09:29:15;;;;;;;11.70;7.80;;;;;;;3.81;100.00;99750.55;109201;1259;66275;-63
2024/01/26 09:31:43;;;;;;;12.70;8.80;;;;;;;3.84;100.00;99750.17;109213;1253;73790;-63
2024/01/26 09:34:11;;;;;;;12.70;8.70;;;;;;;3.84;100.00;99750.27;109228;1253;61938;-63
2024/01/26 09:36:39;;;;;;;13.60;9.30;;;;;;;3.84;100.00;99753.36;109131;1253;58962;-63
2024/01/26 09:39:07;;;;;;;15.30;10.00;;;;;;;3.88;100.00;99753.31;109231;1253;72878;-63
2024/01/26 09:41:35;;;;;;;16.40;9.90;;;;;;;3.89;100.00;99756.80;109201;1253;68046;-63
2024/01/26 09:44:03;;;;;;;15.50;11.00;;;;;;;3.88;100.00;99757.45;109224;1253;74855;-63
2024/01/26 09:46:33;;;;;;;16.60;10.30;;;;;;;3.87;100.00;99755.64;109180;1254;62857;-66
2024/01/26 09:49:01;;;;;;;12.90;9.20;;;;;;;3.86;100.00;99755.27;109091;1260;62220;-63
2024/01/26 09:51:29;;;;;;;12.50;8.90;;;;;;;3.84;100.00;99748.11;109094;1253;76726;-63
2024/01/26 09:54:00;;;;;;;13.80;9.30;;;;;;;3.82;100.00;99748.41;109135;1254;67314;-63
2024/01/26 09:56:28;;;;;;;15.30;10.20;;;;;;;3.82;100.00;99748.08;109213;1254;74391;-66
2024/01/26 09:58:56;;;;;;;12.60;9.00;;;;;;;3.82;100.00;99746.52;109195;1253;61119;-63
2024/01/26 10:01:24;;;;;;;15.00;9.90;;;;;;;3.81;100.00;99745.27;109248;1252;62392;-63
2024/01/26 10:03:52;;;;;;;12.40;9.30;;;;;;;3.81;100.00;99748.38;109221;1252;75512;-63
2024/01/26 10:06:21;;;;;;;16.70;10.30;;;;;;;3.80;100.00;99751.54;109254;1253;69867;-64
2024/01/26 10:08:49;;;;;;;14.30;9.40;;;;;;;3.78;100.00;99750.35;109204;1254;75947;-63
2024/01/26 10:11:16;;;;;;;13.90;9.40;;;;;;;3.76;100.00;99748.98;109220;1253;61251;-63
2024/01/26 10:13:44;;;;;;;14.00;9.30;;;;;;;3.73;100.00;99749.13;109198;1254;60996;-62
2024/01/26 10:16:12;;;;;;;16.30;11.10;;;;;;;3.73;100.00;99748.77;109252;1254;76137;-62
2024/01/26 10:18:43;;;;;;;16.20;10.70;;;;;;;3.72;100.00;99747.67;109198;1253;68012;-66
2024/01/26 10:21:12;;;;;;;16.70;11.40;;;;;;;3.75;100.00;99747.63;109340;1254;73630;-63
2024/01/26 10:23:40;;;;;;;16.00;11.40;;;;;;;3.78;100.00;99744.01;109223;1253;60189;-62
2024/01/26 10:26:11;;;;;;;15.20;10.80;;;;;;;3.84;100.00;99744.81;109233;1253;62208;-63
2024/01/26 10:28:39;;;;;;;16.00;10.50;;;;;;;3.86;100.00;99745.82;109217;1253;74785;-66
2024/01/26 10:31:07;;;;;;;14.70;10.30;;;;;;;3.87;100.00;99747.41;109232;1254;69279;-62
2024/01/26 10:33:36;;;;;;;16.40;10.80;;;;;;;3.90;100.00;99748.68;109235;1253;71651;-63
2024/01/26 10:36:05;;;;;;;14.00;9.90;;;;;;;3.94;100.00;99750.33;109225;1254;62320;-63
2024/01/26 10:38:32;;;;;;;15.70;10.40;;;;;;;3.97;100.00;99750.73;109189;1254;62190;-65
2024/01/26 10:41:02;;;;;;;13.80;9.40;;;;;;;4.00;100.00;99745.65;109050;1254;73512;-62
2024/01/26 10:43:31;;;;;;;13.70;9.50;;;;;;;3.98;100.00;99746.81;109353;1254;69910;-63
2024/01/26 10:46:01;;;;;;;14.70;11.10;;;;;;;3.98;100.00;99746.13;109218;1253;76379;-63
2024/01/26 10:48:29;;;;;;;15.70;10.60;;;;;;;3.96;100.00;99747.55;109224;1253;62979;-63
2024/01/26 10:50:57;;;;;;;23.60;16.20;;;;;;;3.94;100.00;99747.09;109285;1254;63395;-63
2024/01/26 10:53:27;;;;;;;21.80;14.60;;;;;;;3.94;100.00;99744.84;109267;1253;77111;-61
2024/01/26 10:55:55;;;;;;;20.70;14.40;;;;;;;3.94;100.00;99746.59;109257;1254;69361;-62
2024/01/26 10:58:22;;;;;;;16.10;11.50;;;;;;;3.93;100.00;99744.54;109088;1252;73841;-63
2024/01/26 11:00:50;;;;;;;14.40;10.40;;;;;;;3.91;100.00;99746.30;109181;1254;60823;-62
2024/01/26 11:03:19;;;;;;;14.60;9.90;;;;;;;3.91;100.00;99744.80;109262;1253;59433;-63
2024/01/26 11:05:50;;;;;;;12.40;9.00;;;;;;;3.92;100.00;99746.38;109056;1253;75501;-62
2024/01/26 11:08:21;;;;;;;13.80;9.70;;;;;;;3.94;100.00;99746.06;109254;1254;69344;-62
2024/01/26 11:10:50;;;;;;;15.10;10.00;;;;;;;3.94;100.00;99743.65;109095;1254;74776;-63
2024/01/26 11:13:18;;;;;;;12.40;9.10;;;;;;;3.96;100.00;99743.98;109124;1252;61714;-63
2024/01/26 11:15:47;;;;;;;15.40;10.40;;;;;;;3.97;100.00;99746.27;109288;1254;58906;-63
2024/01/26 11:18:25;;;;;;;14.40;9.90;;;;;;;3.96;100.00;99746.02;109124;1252;76769;-64